Laclede, Idaho
Current Conditions -  °F | °C
As of 4:55 AM on Tuesday 21 Oct 2014 (Local Time) from KSZT Reporting Station
Overcast Overcast  
Wind Chill: 50°   Ceiling: 2500
Heat Index: 50°   Visibility: 10mi
Dew Point: 45°   Wind: 6mph
Humidity: 82%   Direction: 240°WSW
Pressure: 29.84"   Gusts: NA
Location:  48.17°N, 116.75°W
Report Text: KSZT 211155Z AUTO 24005KT 10SM OVC025 10/07 A2984 RMK AO2
Loading
Personal Weather Stations






























Interactive Weather Map
Tropical Storm Tracking
New forecast layout! Learn more

10-Day Weather Forecast

Advertisements
Track Severe Weather on mobile